Terminal Aerodrome Forecast
Issued by NWS Charleston, WV

Current Version | Previous Version | Text Only | Print | Product List | Glossary Off
Versions: 1 2 3 4 5 6 7 8 9 10 11 12 13 14 15 16 17 18 19 20 21 22 23 24 25 26 27

000
FTUS41 KRLX 280200 AAA
TAFPKB
TAF AMD
KPKB 280246Z 2803/2824 26009KT P6SM SCT010 BKN040
     FM280500 28007KT P6SM BKN045
     FM280800 27007KT P6SM BKN020
     FM281800 28009KT P6SM -SHRA BKN035
     FM282100 30008KT P6SM BKN035=

USA.gov is the U.S. government's official web portal to all federal, state and local government web resources and services.